createdAt,value
2022-11-30T00:01:23.306Z,5.40
2022-11-30T00:03:54.854Z,5.30
2022-11-30T00:06:24.948Z,5.30
2022-11-30T00:08:57.166Z,5.30
2022-11-30T00:11:26.669Z,5.30
2022-11-30T00:13:53.676Z,5.30
2022-11-30T00:16:21.573Z,5.30
2022-11-30T00:18:48.639Z,5.30
2022-11-30T00:21:16.318Z,5.30
2022-11-30T00:23:45.623Z,5.40
2022-11-30T00:26:17.323Z,5.40
2022-11-30T00:28:47.869Z,5.40
2022-11-30T00:31:18.416Z,5.40
2022-11-30T00:33:45.681Z,5.40
2022-11-30T00:36:19.122Z,5.40
2022-11-30T00:38:46.940Z,5.40
2022-11-30T00:41:14.885Z,5.40
2022-11-30T00:43:41.954Z,5.40
2022-11-30T00:46:09.781Z,5.50
2022-11-30T00:48:38.611Z,5.50
2022-11-30T00:51:07.096Z,5.50
2022-11-30T00:53:34.162Z,5.50
2022-11-30T00:56:01.199Z,5.50
2022-11-30T00:58:28.112Z,5.50
2022-11-30T01:00:55.085Z,5.50
2022-11-30T01:03:22.085Z,5.50
2022-11-30T01:05:48.991Z,5.50
2022-11-30T01:08:16.196Z,5.50
2022-11-30T01:10:44.502Z,5.50
2022-11-30T01:13:14.743Z,5.50
2022-11-30T01:15:44.934Z,5.50
2022-11-30T01:18:11.993Z,5.60
2022-11-30T01:20:43.519Z,5.50
2022-11-30T01:23:13.332Z,5.60
2022-11-30T01:25:40.298Z,5.60
2022-11-30T01:28:09.613Z,5.60
2022-11-30T01:30:39.655Z,5.60
2022-11-30T01:33:07.277Z,5.60
2022-11-30T01:35:37.741Z,5.60
2022-11-30T01:38:04.639Z,5.60
2022-11-30T01:40:32.311Z,5.60
2022-11-30T01:42:59.211Z,5.60
2022-11-30T01:45:26.221Z,5.60
2022-11-30T01:47:56.907Z,5.60
2022-11-30T01:50:39.988Z,5.60
2022-11-30T01:53:12.445Z,5.60
2022-11-30T01:55:48.601Z,5.60
2022-11-30T01:58:30.495Z,5.60
2022-11-30T02:01:00.049Z,5.60
2022-11-30T02:03:43.876Z,5.60
2022-11-30T02:06:14.671Z,5.60
2022-11-30T02:08:49.745Z,5.60
2022-11-30T02:11:21.595Z,5.60
2022-11-30T02:14:05.719Z,5.60
2022-11-30T02:17:08.359Z,5.60
2022-11-30T02:20:22.690Z,5.60
2022-11-30T02:23:10.464Z,5.60
2022-11-30T02:26:16.233Z,5.60
2022-11-30T02:29:21.280Z,5.70
2022-11-30T02:32:15.101Z,5.70
2022-11-30T02:34:43.716Z,5.70
2022-11-30T02:37:14.584Z,5.70
2022-11-30T02:39:42.806Z,5.70
2022-11-30T02:42:14.639Z,5.70
2022-11-30T02:44:52.261Z,5.70
2022-11-30T02:47:28.300Z,5.70
2022-11-30T02:50:13.619Z,5.70
2022-11-30T02:52:44.068Z,5.80
2022-11-30T02:55:18.076Z,5.70
2022-11-30T02:57:45.249Z,5.70
2022-11-30T03:00:14.414Z,5.70
2022-11-30T03:02:44.995Z,5.70
2022-11-30T03:05:14.420Z,5.70
2022-11-30T03:07:41.353Z,5.70
2022-11-30T03:10:09.478Z,5.70
2022-11-30T03:12:36.726Z,5.70
2022-11-30T03:15:07.622Z,5.70
2022-11-30T03:17:37.940Z,5.70
2022-11-30T03:20:05.872Z,5.80
2022-11-30T03:22:32.841Z,5.80
2022-11-30T03:24:59.747Z,5.70
2022-11-30T03:27:26.700Z,5.70
2022-11-30T03:29:56.621Z,5.80
2022-11-30T03:32:25.181Z,5.80
2022-11-30T03:34:52.260Z,5.80
2022-11-30T03:37:19.251Z,5.80
2022-11-30T03:39:49.672Z,5.80
2022-11-30T03:42:19.373Z,5.80
2022-11-30T03:44:46.454Z,5.80
2022-11-30T03:47:16.516Z,5.80
2022-11-30T03:49:43.408Z,5.80
2022-11-30T03:52:13.108Z,5.80
2022-11-30T03:54:40.067Z,5.90
2022-11-30T03:57:06.958Z,5.90
2022-11-30T03:59:33.906Z,5.90
2022-11-30T04:02:01.004Z,5.80
2022-11-30T04:04:27.991Z,5.80
2022-11-30T04:06:54.915Z,5.70
2022-11-30T04:09:21.833Z,5.80
2022-11-30T04:11:48.769Z,5.90
2022-11-30T04:14:15.739Z,5.90
2022-11-30T04:16:42.700Z,5.90
2022-11-30T04:19:09.665Z,5.90
2022-11-30T04:21:36.693Z,5.80
2022-11-30T04:24:03.848Z,5.80
2022-11-30T04:26:30.751Z,5.80
2022-11-30T04:28:57.648Z,5.90
2022-11-30T04:31:24.677Z,5.90
2022-11-30T04:33:54.620Z,5.90
2022-11-30T04:36:24.946Z,5.90
2022-11-30T04:38:51.872Z,5.90
2022-11-30T04:41:18.799Z,5.90
2022-11-30T04:43:45.766Z,5.90
2022-11-30T04:46:12.914Z,5.90
2022-11-30T04:48:39.941Z,5.90
2022-11-30T04:51:08.893Z,5.90
2022-11-30T04:53:37.633Z,5.90
2022-11-30T04:56:09.943Z,5.90
2022-11-30T04:58:38.793Z,5.90
2022-11-30T05:01:06.275Z,5.90
2022-11-30T05:03:33.204Z,5.80
2022-11-30T05:06:00.201Z,5.90
2022-11-30T05:08:27.261Z,5.90
2022-11-30T05:10:55.389Z,5.90
2022-11-30T05:13:24.281Z,5.80
2022-11-30T05:15:52.480Z,5.80
2022-11-30T05:18:20.044Z,5.80
2022-11-30T05:20:53.954Z,5.80
2022-11-30T05:23:21.965Z,5.90
2022-11-30T05:25:51.493Z,6.00
2022-11-30T05:28:19.366Z,5.90
2022-11-30T05:30:46.708Z,5.80
2022-11-30T05:33:16.472Z,5.80
2022-11-30T05:35:43.721Z,5.80
2022-11-30T05:38:12.912Z,5.80
2022-11-30T05:40:41.637Z,5.80
2022-11-30T05:43:12.846Z,5.90
2022-11-30T05:45:41.545Z,5.90
2022-11-30T05:48:11.364Z,5.90
2022-11-30T05:50:41.608Z,5.90
2022-11-30T05:53:11.123Z,5.90
2022-11-30T05:55:38.331Z,5.90
2022-11-30T05:58:07.879Z,5.90
2022-11-30T06:00:34.815Z,5.90
2022-11-30T06:03:01.887Z,5.90
2022-11-30T06:05:38.445Z,5.90
2022-11-30T06:08:08.798Z,5.90
2022-11-30T06:10:39.866Z,5.90
2022-11-30T06:13:09.743Z,5.90
2022-11-30T06:15:41.162Z,5.90
2022-11-30T06:18:10.069Z,5.90
2022-11-30T06:20:37.409Z,5.90
2022-11-30T06:23:04.368Z,5.90
2022-11-30T06:25:31.630Z,5.90
2022-11-30T06:28:00.609Z,5.90
2022-11-30T06:30:30.720Z,5.90
2022-11-30T06:33:01.210Z,5.90
2022-11-30T06:35:28.312Z,5.90
2022-11-30T06:37:58.481Z,5.80
2022-11-30T06:40:25.936Z,5.90
2022-11-30T06:42:56.460Z,5.90
2022-11-30T06:45:23.425Z,5.80
2022-11-30T06:47:59.437Z,5.80
2022-11-30T06:50:26.626Z,5.80
2022-11-30T06:52:56.492Z,5.80
2022-11-30T06:55:33.854Z,5.80
2022-11-30T06:58:14.648Z,5.70
2022-11-30T07:00:42.855Z,5.70
2022-11-30T07:03:11.875Z,5.70
2022-11-30T07:05:45.380Z,5.80
2022-11-30T07:08:21.214Z,5.70
2022-11-30T07:10:51.232Z,5.70
2022-11-30T07:13:20.369Z,5.70
2022-11-30T07:15:54.434Z,5.70
2022-11-30T07:18:31.910Z,5.70
2022-11-30T07:21:07.692Z,5.60
2022-11-30T07:23:56.634Z,5.60
2022-11-30T07:26:25.421Z,5.60
2022-11-30T07:28:55.341Z,5.60
2022-11-30T07:31:33.770Z,5.60
2022-11-30T07:34:06.982Z,5.60
2022-11-30T07:36:35.485Z,5.60
2022-11-30T07:39:03.761Z,5.60
2022-11-30T07:41:31.469Z,5.60
2022-11-30T07:43:58.494Z,5.60
2022-11-30T07:46:26.072Z,5.50
2022-11-30T07:48:53.057Z,5.50
2022-11-30T07:51:22.524Z,5.50
2022-11-30T07:53:55.721Z,5.60
2022-11-30T07:56:23.796Z,5.60
2022-11-30T07:58:58.280Z,5.60
2022-11-30T08:01:29.278Z,5.60
2022-11-30T08:03:59.805Z,5.60
2022-11-30T08:06:31.146Z,5.70
2022-11-30T08:09:04.039Z,5.70
2022-11-30T08:11:34.791Z,5.70
2022-11-30T08:14:02.678Z,5.70
2022-11-30T08:16:36.332Z,5.70
2022-11-30T08:19:04.108Z,5.80
2022-11-30T08:21:34.156Z,5.80
2022-11-30T08:24:01.187Z,5.80
2022-11-30T08:26:37.134Z,5.90
2022-11-30T08:29:04.062Z,5.80
2022-11-30T08:31:36.350Z,5.90
2022-11-30T08:34:10.941Z,5.80
2022-11-30T08:36:39.871Z,5.70
2022-11-30T08:39:09.058Z,5.70
2022-11-30T08:41:36.563Z,5.70
2022-11-30T08:44:03.719Z,5.70
2022-11-30T08:52:20.887Z,6.00
2022-11-30T08:54:55.112Z,6.10
2022-11-30T08:57:22.520Z,6.10
2022-11-30T08:59:49.981Z,6.10
2022-11-30T09:02:19.687Z,6.10
2022-11-30T09:04:49.228Z,6.10
2022-11-30T09:07:16.600Z,6.20
2022-11-30T09:09:43.552Z,6.20
2022-11-30T09:12:10.639Z,6.20
2022-11-30T09:14:37.724Z,6.30
2022-11-30T09:17:10.786Z,6.40
2022-11-30T09:19:37.735Z,6.40
2022-11-30T09:22:04.652Z,6.40
2022-11-30T09:24:31.600Z,6.30
2022-11-30T09:26:58.492Z,6.30
2022-11-30T09:29:25.555Z,6.40
2022-11-30T09:31:52.652Z,6.40
2022-11-30T09:34:19.677Z,6.40
2022-11-30T09:36:46.653Z,6.40
2022-11-30T09:39:13.715Z,6.50
2022-11-30T09:42:02.759Z,6.50
2022-11-30T09:45:02.392Z,6.50
2022-11-30T09:47:49.378Z,6.50
2022-11-30T09:50:25.191Z,6.30
2022-11-30T09:52:59.033Z,6.40
2022-11-30T09:55:34.732Z,6.30
2022-11-30T09:58:04.443Z,6.30
2022-11-30T10:00:33.037Z,6.40
2022-11-30T10:03:04.657Z,6.50
2022-11-30T10:05:50.178Z,6.40
2022-11-30T10:08:35.307Z,6.20
2022-11-30T10:11:42.599Z,6.20
2022-11-30T10:14:46.250Z,6.40
2022-11-30T10:17:46.401Z,6.70
2022-11-30T10:21:12.590Z,6.70
2022-11-30T10:23:45.716Z,6.80
2022-11-30T10:26:32.461Z,6.90
2022-11-30T10:29:19.369Z,6.90
2022-11-30T10:31:57.756Z,7.00
2022-11-30T10:34:36.150Z,7.00
2022-11-30T10:37:13.458Z,7.10
2022-11-30T10:40:00.850Z,7.10
2022-11-30T10:42:47.094Z,7.20
2022-11-30T10:45:22.165Z,7.20
2022-11-30T10:48:14.288Z,7.10
2022-11-30T10:50:42.188Z,7.10
2022-11-30T10:53:13.471Z,7.10
2022-11-30T10:55:44.866Z,7.00
2022-11-30T10:58:38.445Z,7.10
2022-11-30T11:01:07.975Z,7.10
2022-11-30T11:03:35.605Z,7.10
2022-11-30T11:06:15.753Z,7.20
2022-11-30T11:08:45.609Z,7.20
2022-11-30T11:11:36.520Z,7.00
2022-11-30T11:14:33.654Z,7.00
2022-11-30T11:17:21.989Z,7.00
2022-11-30T11:19:51.499Z,7.00
2022-11-30T11:22:24.891Z,7.00
2022-11-30T11:25:16.244Z,7.10
2022-11-30T11:27:45.152Z,7.00
2022-11-30T11:30:27.487Z,7.00
2022-11-30T11:33:12.308Z,7.10
2022-11-30T11:35:51.267Z,7.10
2022-11-30T11:38:50.319Z,7.10
2022-11-30T11:41:36.321Z,7.10
2022-11-30T11:44:03.210Z,7.10
2022-11-30T11:46:35.546Z,7.10
2022-11-30T11:49:21.493Z,7.10
2022-11-30T11:52:13.930Z,7.00
2022-11-30T11:55:05.355Z,7.00
2022-11-30T11:57:55.095Z,7.10
2022-11-30T12:00:25.381Z,7.20
2022-11-30T12:03:04.930Z,7.00
2022-11-30T12:05:38.367Z,7.10
2022-11-30T12:08:38.628Z,7.10
2022-11-30T12:11:42.241Z,7.10
2022-11-30T12:14:16.639Z,7.10
2022-11-30T12:17:08.540Z,7.30
2022-11-30T12:20:13.878Z,7.50
2022-11-30T12:23:15.655Z,7.60
2022-11-30T12:26:20.069Z,7.60
2022-11-30T12:29:40.249Z,7.70
2022-11-30T12:32:13.197Z,7.70
2022-11-30T12:34:55.086Z,7.80
2022-11-30T12:37:47.498Z,7.80
2022-11-30T12:40:29.767Z,7.80
2022-11-30T12:43:35.597Z,7.70
2022-11-30T12:46:38.877Z,7.70
2022-11-30T12:49:36.531Z,7.70
2022-11-30T12:52:18.628Z,7.60
2022-11-30T12:55:07.134Z,7.60
2022-11-30T12:58:00.935Z,7.70
2022-11-30T13:00:48.145Z,7.60
2022-11-30T13:03:40.549Z,7.70
2022-11-30T13:06:44.650Z,7.70
2022-11-30T13:09:20.227Z,7.70
2022-11-30T13:11:55.331Z,7.70
2022-11-30T13:14:25.336Z,7.60
2022-11-30T13:17:04.090Z,7.60
2022-11-30T13:20:07.641Z,7.50
2022-11-30T13:22:52.522Z,7.50
2022-11-30T13:25:59.696Z,7.50
2022-11-30T13:28:50.355Z,7.50
2022-11-30T13:31:27.968Z,7.40
2022-11-30T13:33:54.916Z,7.50
2022-11-30T13:36:44.803Z,7.50
2022-11-30T13:39:14.636Z,7.60
2022-11-30T13:41:44.695Z,7.60
2022-11-30T13:44:35.078Z,7.50
2022-11-30T13:47:21.426Z,7.60
2022-11-30T13:50:00.044Z,7.60
2022-11-30T13:53:25.576Z,7.70
2022-11-30T13:56:01.037Z,7.80
2022-11-30T13:58:32.069Z,7.70
2022-11-30T14:01:26.476Z,7.70
2022-11-30T14:04:18.574Z,7.60
2022-11-30T14:06:55.524Z,7.60
2022-11-30T14:09:47.094Z,7.60
2022-11-30T14:12:36.871Z,7.60
2022-11-30T14:15:31.869Z,7.60
2022-11-30T14:17:59.197Z,7.60
2022-11-30T14:20:37.500Z,7.60
2022-11-30T14:23:30.537Z,7.60
2022-11-30T14:26:10.298Z,7.60
2022-11-30T14:29:04.170Z,7.60
2022-11-30T14:31:41.936Z,7.50
2022-11-30T14:34:18.077Z,7.50
2022-11-30T14:36:59.618Z,7.50
2022-11-30T14:39:42.017Z,7.60
2022-11-30T14:42:28.113Z,7.60
2022-11-30T14:44:56.401Z,7.50
2022-11-30T14:47:32.540Z,7.50
2022-11-30T14:50:02.836Z,7.50
2022-11-30T14:52:58.036Z,7.50
2022-11-30T14:55:46.242Z,7.50
2022-11-30T14:58:29.621Z,7.50
2022-11-30T15:00:57.438Z,7.50
2022-11-30T15:03:28.765Z,7.50
2022-11-30T15:06:03.525Z,7.50
2022-11-30T15:08:44.272Z,7.50
2022-11-30T15:11:13.771Z,7.40
2022-11-30T15:13:51.132Z,7.40
2022-11-30T15:16:28.398Z,7.40
2022-11-30T15:18:58.062Z,7.40
2022-11-30T15:21:34.123Z,7.30
2022-11-30T15:24:02.389Z,7.30
2022-11-30T15:26:54.843Z,7.30
2022-11-30T15:29:53.098Z,7.30
2022-11-30T15:32:23.915Z,7.20
2022-11-30T15:34:57.843Z,7.20
2022-11-30T15:37:34.938Z,7.10
2022-11-30T15:40:06.004Z,7.10
2022-11-30T15:42:44.030Z,7.10
2022-11-30T15:45:24.465Z,7.10
2022-11-30T15:47:53.088Z,7.20
2022-11-30T15:50:41.121Z,7.10
2022-11-30T15:53:47.053Z,7.10
2022-11-30T15:56:25.980Z,7.20
2022-11-30T15:59:14.711Z,7.10
2022-11-30T16:02:18.137Z,7.10
2022-11-30T16:04:57.189Z,7.10
2022-11-30T16:07:51.538Z,7.10
2022-11-30T16:10:26.247Z,7.10
2022-11-30T16:12:54.935Z,7.10
2022-11-30T16:15:36.965Z,7.10
2022-11-30T16:18:20.684Z,7.10
2022-11-30T16:21:00.121Z,7.00
2022-11-30T16:23:28.421Z,7.00
2022-11-30T16:25:55.838Z,6.90
2022-11-30T16:28:23.315Z,6.90
2022-11-30T16:30:51.091Z,6.90
2022-11-30T16:33:25.169Z,6.90
2022-11-30T16:35:59.450Z,6.80
2022-11-30T16:38:27.509Z,6.90
2022-11-30T16:40:55.865Z,6.90
2022-11-30T16:43:26.152Z,6.80
2022-11-30T16:45:55.806Z,6.80
2022-11-30T16:48:22.790Z,6.80
2022-11-30T16:50:49.700Z,6.80
2022-11-30T16:53:16.670Z,6.80
2022-11-30T16:55:44.413Z,6.80
2022-11-30T16:58:11.376Z,6.80
2022-11-30T17:00:40.250Z,6.80
2022-11-30T17:03:19.013Z,6.90
2022-11-30T17:05:45.957Z,6.90
2022-11-30T17:08:12.975Z,6.90
2022-11-30T17:10:40.288Z,6.90
2022-11-30T17:13:07.261Z,6.80
2022-11-30T17:15:34.214Z,6.90
2022-11-30T17:18:01.147Z,6.90
2022-11-30T17:20:28.352Z,6.90
2022-11-30T17:22:55.518Z,7.00
2022-11-30T17:25:24.116Z,7.00
2022-11-30T17:27:51.905Z,7.00
2022-11-30T17:30:21.960Z,6.90
2022-11-30T17:32:50.551Z,6.90
2022-11-30T17:35:20.484Z,6.90
2022-11-30T17:37:47.518Z,6.90
2022-11-30T17:40:17.967Z,6.90
2022-11-30T17:42:44.876Z,6.90
2022-11-30T17:45:11.926Z,6.90
2022-11-30T17:47:38.846Z,6.90
2022-11-30T17:50:07.583Z,6.90
2022-11-30T17:52:34.517Z,6.90
2022-11-30T17:55:01.522Z,6.90
2022-11-30T17:57:28.430Z,6.90
2022-11-30T17:59:55.422Z,6.90
2022-11-30T18:02:22.420Z,6.90
2022-11-30T18:04:49.638Z,6.90
2022-11-30T18:07:17.031Z,6.90
2022-11-30T18:09:43.943Z,7.00
2022-11-30T18:12:11.611Z,7.00
2022-11-30T18:14:38.589Z,7.00
2022-11-30T18:17:05.729Z,7.00
2022-11-30T18:19:32.705Z,7.00
2022-11-30T18:21:59.675Z,7.00
2022-11-30T18:24:26.796Z,6.90
2022-11-30T18:26:54.101Z,6.90
2022-11-30T18:29:21.321Z,6.90
2022-11-30T18:31:51.402Z,6.90
2022-11-30T18:34:18.401Z,6.90
2022-11-30T18:36:45.309Z,6.90
2022-11-30T18:39:12.263Z,6.90
2022-11-30T18:41:39.333Z,6.90
2022-11-30T18:44:06.471Z,6.90
2022-11-30T18:46:33.502Z,6.90
2022-11-30T18:49:01.642Z,6.90
2022-11-30T18:51:30.929Z,6.90
2022-11-30T18:54:06.869Z,6.90
2022-11-30T18:56:37.089Z,6.90
2022-11-30T18:59:12.926Z,6.90
2022-11-30T19:01:40.969Z,7.00
2022-11-30T19:04:10.357Z,7.00
2022-11-30T19:06:39.491Z,7.00
2022-11-30T19:09:13.139Z,7.00
2022-11-30T19:11:41.323Z,7.00
2022-11-30T19:14:10.206Z,7.00
2022-11-30T19:16:37.377Z,7.00
2022-11-30T19:19:07.715Z,6.90
2022-11-30T19:21:35.184Z,6.90
2022-11-30T19:24:02.204Z,6.90
2022-11-30T19:26:29.499Z,6.90
2022-11-30T19:28:57.587Z,7.00
2022-11-30T19:31:25.827Z,7.00
2022-11-30T19:33:55.387Z,7.00
2022-11-30T19:36:28.179Z,7.00
2022-11-30T19:38:56.842Z,6.90
2022-11-30T19:41:23.990Z,6.90
2022-11-30T19:44:03.601Z,6.90
2022-11-30T19:46:32.025Z,6.90
2022-11-30T19:49:01.348Z,6.80
2022-11-30T19:51:34.766Z,6.80
2022-11-30T19:54:02.059Z,6.80
2022-11-30T19:56:31.685Z,6.80
2022-11-30T19:59:04.373Z,6.80
2022-11-30T20:01:32.567Z,6.80
2022-11-30T20:03:59.667Z,6.70
2022-11-30T20:06:37.632Z,6.60
2022-11-30T20:09:07.022Z,6.70
2022-11-30T20:11:34.480Z,6.60
2022-11-30T20:14:01.678Z,6.50
2022-11-30T20:16:29.177Z,6.50
2022-11-30T20:19:02.668Z,6.50
2022-11-30T20:21:33.486Z,6.50
2022-11-30T20:24:04.942Z,6.50
2022-11-30T20:26:41.564Z,6.50
2022-11-30T20:29:14.021Z,6.50
2022-11-30T20:31:41.541Z,6.50
2022-11-30T20:34:08.801Z,6.50
2022-11-30T20:36:36.329Z,6.50
2022-11-30T20:39:05.005Z,6.50
2022-11-30T20:41:32.046Z,6.50
2022-11-30T20:43:59.004Z,6.50
2022-11-30T20:46:36.797Z,6.50
2022-11-30T20:49:15.512Z,6.50
2022-11-30T20:51:42.519Z,6.50
2022-11-30T20:54:10.675Z,6.50
2022-11-30T20:56:38.922Z,6.50
2022-11-30T20:59:12.968Z,6.50
2022-11-30T21:01:45.363Z,6.50
2022-11-30T21:04:12.767Z,6.50
2022-11-30T21:06:40.571Z,6.50
2022-11-30T21:09:07.540Z,6.60
2022-11-30T21:11:34.638Z,6.60
2022-11-30T21:14:01.696Z,6.60
2022-11-30T21:16:29.830Z,6.60
2022-11-30T21:19:01.521Z,6.60
2022-11-30T21:21:35.261Z,6.60
2022-11-30T21:24:08.693Z,6.60
2022-11-30T21:26:45.477Z,6.60
2022-11-30T21:29:16.200Z,6.60
2022-11-30T21:31:44.884Z,6.60
2022-11-30T21:34:12.434Z,6.70
2022-11-30T21:36:39.776Z,6.70
2022-11-30T21:39:07.682Z,6.70
2022-11-30T21:41:39.761Z,6.80
2022-11-30T21:44:11.350Z,6.70
2022-11-30T21:46:38.780Z,6.60
2022-11-30T21:49:06.822Z,6.60
2022-11-30T21:51:34.493Z,6.50
2022-11-30T21:54:05.725Z,6.50
2022-11-30T21:56:36.615Z,6.50
2022-11-30T21:59:10.724Z,6.50
2022-11-30T22:01:41.677Z,6.50
2022-11-30T22:04:11.094Z,6.40
2022-11-30T22:06:39.943Z,6.40
2022-11-30T22:09:13.237Z,6.40
2022-11-30T22:11:42.689Z,6.40
2022-11-30T22:14:15.983Z,6.40
2022-11-30T22:16:43.291Z,6.30
2022-11-30T22:19:10.417Z,6.30
2022-11-30T22:21:37.377Z,6.20
2022-11-30T22:24:09.493Z,6.20
2022-11-30T22:26:39.680Z,6.20
2022-11-30T22:29:22.585Z,6.20
2022-11-30T22:31:52.791Z,6.20
2022-11-30T22:34:21.046Z,6.00
2022-11-30T22:36:48.424Z,6.00
2022-11-30T22:39:20.724Z,6.00
2022-11-30T22:41:55.055Z,5.90
2022-11-30T22:44:22.735Z,5.90
2022-11-30T22:46:49.819Z,5.90
2022-11-30T22:49:21.080Z,5.80
2022-11-30T22:51:50.125Z,5.70
2022-11-30T22:54:18.013Z,5.70
2022-11-30T22:56:46.555Z,5.70
2022-11-30T22:59:14.833Z,5.60
2022-11-30T23:01:50.189Z,5.60
2022-11-30T23:04:20.984Z,5.60
2022-11-30T23:06:49.524Z,5.50
2022-11-30T23:09:20.384Z,5.50
2022-11-30T23:11:47.900Z,5.50
2022-11-30T23:14:16.290Z,5.50
2022-11-30T23:16:44.669Z,5.50
2022-11-30T23:19:12.861Z,5.50
2022-11-30T23:21:42.587Z,5.50
2022-11-30T23:24:16.873Z,5.50
2022-11-30T23:26:44.042Z,5.50
2022-11-30T23:29:17.775Z,5.50
2022-11-30T23:31:46.178Z,5.50
2022-11-30T23:34:21.478Z,5.50
2022-11-30T23:36:49.656Z,5.50
2022-11-30T23:39:19.031Z,5.50
2022-11-30T23:41:46.308Z,5.40
2022-11-30T23:44:13.447Z,5.40
2022-11-30T23:46:40.630Z,5.40
2022-11-30T23:49:08.275Z,5.30
2022-11-30T23:51:35.563Z,5.20
2022-11-30T23:54:02.522Z,5.20
2022-11-30T23:56:29.435Z,5.20
2022-11-30T23:58:56.432Z,5.30
